Airport Name : Lismore

Other Name : Lismore

ICAO : YLIS

IATA : LSY

FAA :

Latitude : -28.830278

Longitude : 153.26

Country : Australia

Local Date and Time : 1/22/2018 5:30:00 AM

 

TAF (Terminal Aerodrome Forecast)

 

METAR (METeorological Aerodrome Report)

YLIS 211800Z AUTO 36003KT 9999 // SCT027 SCT033 BKN041 18/17 Q1012

YLIS 211700Z AUTO 00000KT 9999 // SCT027 BKN034 18/17 Q1012

YLIS 211600Z AUTO 35004KT 9999 // BKN025 19/18 Q1012

YLIS 211500Z AUTO 00000KT 9999 // BKN032 BKN043 18/17 Q1012